Monterrey Gen Maria, México

5:36 PM EST en Marzo 03, 2015 (GMT -0500)
Gen Mariano Escobedo International | Change Station
CLOSE
Current Station
Aeropuerto
Location: Monterrey Gen Maria,
Altura: 1270 ft
Estaciones meteorológicas cercanas

Alt 1270 ft 25.78 °N, 100.11 °W | Updated 50 minutes ago

Mostly Cloudy
Muy nublado
68 ° F
Sensación térmica 68 ° F
N
6
Viento Variable Viento desde ENE

Hoy
Alta -- | Baja -- ° F
--% Posibilidad de precipitaciones
Ayer
Alta -- | Baja -- ° F
Precip. -- pul
8:01 AM 7:43 PM
Gibosa creciente, 97% visible
Presión 29.80 pul
Visibilidad 7.0 Millas
Nubes Nubes dispersas 3000 ft
Muy nublado 5000 ft
Punto de rocío 59 ° F
Humedad 73%
Precipitaciones 0.15 pul
Espesor de la nieve No disponible.
UV 2 de una escala de 12
Polen No disponible.
Calidad del aire No disponible.
Flu Activity No disponible.
METAR MMMY 032146Z 07005KT 7SM SCT030 BKN050 20/15 A2980 RMK 8/500 HZY

More Conditions Fewer Conditions

Presión 29.80 pul
Visibilidad 7.0 Millas
Nubes Nubes dispersas 3000 ft
Muy nublado 5000 ft
Punto de rocío 59 ° F
Humedad 73%
Precipitaciones 0.15 pul
Espesor de la nieve No disponible.
UV 2 de una escala de 12
Polen No disponible.
Calidad del aire No disponible.
Flu Activity No disponible.
METAR MMMY 032146Z 07005KT 7SM SCT030 BKN050 20/15 A2980 RMK 8/500 HZY

More Conditions Fewer Conditions

10-Day Weather Forecast

Almanac

Astronomía

Mar. 03, 2015 Salida Puesta
Hora real
Crepúsculo civil
Crepúsculo náutico
Crepúsculo astronómico
Luna
Horas de luz
Horas de luz
Tomorrow will be .
, % of the Moon is Illuminated

Extremos de hoy

Máximos del país Bajas del país

Community

WunderPhotos

Upload Photos

1,802,297 ¡fotos cargadas!

WunderBlogs® & News

Nearby

Calidad del aire

  Calidad del aire Índice AQ Contaminante
Not available.

Grosos de nieve

Estación Profundido Altura

Actividad de terremotos

Ciudad Distance Mag. Tiempo y dato
Magnitud mínima muestra es 2,5.

Temperaturas de aguas costeras

Lugar Temperatura

Estaciones meteorológicas cercanas